createdAt,value
2023-03-23T16:02:29.735Z,8.40
2023-03-23T16:07:32.423Z,12.30
2023-03-23T16:12:35.239Z,11.70
2023-03-23T16:17:37.858Z,9.90
2023-03-23T16:22:40.457Z,8.10
2023-03-23T16:27:43.353Z,13.20
2023-03-23T16:32:46.980Z,13.10
2023-03-23T16:38:08.131Z,12.50
2023-03-23T16:43:12.545Z,9.90
2023-03-23T16:48:16.737Z,8.40
2023-03-23T16:53:19.409Z,10.40
2023-03-23T16:58:22.014Z,6.00
2023-03-23T17:03:24.695Z,7.30
2023-03-23T17:08:27.667Z,9.10
2023-03-23T17:13:30.414Z,11.00
2023-03-23T17:18:32.972Z,9.40
2023-03-23T17:23:35.777Z,9.10
2023-03-23T17:28:38.283Z,11.50
2023-03-23T17:33:40.888Z,8.30
2023-03-23T17:38:43.655Z,10.90
2023-03-23T17:43:46.395Z,7.70
2023-03-23T17:48:49.048Z,6.00
2023-03-23T17:53:51.659Z,10.00
2023-03-23T17:58:54.386Z,11.70
2023-03-23T18:03:56.922Z,12.20
2023-03-23T18:08:59.649Z,12.10
2023-03-23T18:14:02.325Z,12.30
2023-03-23T18:19:06.571Z,19.00
2023-03-23T18:24:09.378Z,12.60
2023-03-23T18:29:12.223Z,11.10
2023-03-23T18:34:14.732Z,15.00
2023-03-23T18:39:17.301Z,13.60
2023-03-23T18:44:20.383Z,16.20
2023-03-23T18:49:23.138Z,14.80
2023-03-23T18:54:25.764Z,13.00
2023-03-23T18:59:30.477Z,14.10
2023-03-23T19:04:33.161Z,15.60
2023-03-23T19:09:36.854Z,11.80
2023-03-23T19:14:40.336Z,11.70
2023-03-23T19:19:43.779Z,14.00
2023-03-23T19:24:46.510Z,12.50
2023-03-23T19:29:49.058Z,13.60
2023-03-23T19:40:28.661Z,18.30
2023-03-23T19:45:32.584Z,10.30
2023-03-23T19:50:36.734Z,13.30
2023-03-23T19:55:39.597Z,12.10
2023-03-23T20:00:44.244Z,9.50
2023-03-23T20:05:49.145Z,6.50
2023-03-23T20:10:53.221Z,12.50
2023-03-23T20:15:58.691Z,6.80
2023-03-23T20:21:11.291Z,7.40
2023-03-23T20:26:17.113Z,12.50
2023-03-23T20:36:30.179Z,4.90
2023-03-23T20:41:35.886Z,3.80
2023-03-23T20:46:38.999Z,4.40
2023-03-23T20:51:41.919Z,5.70
2023-03-23T20:56:44.829Z,5.70
2023-03-23T21:01:50.409Z,8.00
2023-03-23T21:06:53.731Z,5.70
2023-03-23T21:11:57.183Z,8.10
2023-03-23T21:17:01.557Z,24.30
2023-03-23T21:22:05.231Z,14.40
2023-03-23T21:27:08.147Z,13.30
2023-03-23T21:32:10.751Z,11.00
2023-03-23T21:37:15.048Z,24.90
2023-03-23T21:42:18.087Z,11.90
2023-03-23T21:47:20.771Z,12.30
2023-03-23T21:52:25.693Z,10.40
2023-03-23T21:57:29.304Z,5.40
2023-03-23T22:02:31.846Z,4.90
2023-03-23T22:07:38.987Z,6.20
2023-03-23T22:12:41.668Z,7.30
2023-03-23T22:17:44.232Z,7.80
2023-03-23T22:22:46.803Z,6.60
2023-03-23T22:27:49.875Z,6.20
2023-03-23T22:32:52.426Z,6.90
2023-03-23T22:37:55.625Z,8.40
2023-03-23T22:42:58.254Z,5.00
2023-03-23T22:48:01.125Z,5.40
2023-03-23T22:53:03.749Z,5.20
2023-03-23T22:58:06.283Z,6.20
2023-03-23T23:03:08.868Z,4.30
2023-03-23T23:08:13.279Z,3.00
2023-03-23T23:13:17.373Z,7.50
2023-03-23T23:18:20.689Z,3.40
2023-03-23T23:23:24.944Z,4.00
2023-03-23T23:28:27.522Z,3.10
2023-03-23T23:33:30.175Z,4.10
2023-03-23T23:38:32.720Z,2.30
2023-03-23T23:43:35.257Z,3.40
2023-03-23T23:48:38.011Z,2.70
2023-03-23T23:53:44.037Z,3.20
